createdAt,value
2019-05-19T00:01:00.282Z,16.00
2019-05-19T00:03:29.888Z,16.00
2019-05-19T00:06:00.418Z,16.10
2019-05-19T00:08:29.859Z,16.00
2019-05-19T00:10:59.310Z,16.00
2019-05-19T00:13:28.780Z,16.00
2019-05-19T00:15:58.253Z,16.00
2019-05-19T00:18:27.713Z,16.00
2019-05-19T00:20:57.190Z,16.00
2019-05-19T00:23:26.631Z,16.00
2019-05-19T00:25:56.210Z,16.00
2019-05-19T00:28:25.726Z,16.00
2019-05-19T00:30:55.245Z,16.00
2019-05-19T00:33:24.710Z,16.00
2019-05-19T00:35:54.215Z,16.00
2019-05-19T00:38:23.676Z,16.00
2019-05-19T00:40:53.163Z,15.90
2019-05-19T00:43:22.692Z,16.00
2019-05-19T00:45:52.140Z,16.00
2019-05-19T00:48:21.594Z,16.00
2019-05-19T00:50:51.114Z,16.00
2019-05-19T00:53:20.655Z,16.00
2019-05-19T00:55:51.546Z,16.00
2019-05-19T00:58:23.219Z,15.90
2019-05-19T01:00:52.678Z,15.90
2019-05-19T01:03:22.133Z,15.90
2019-05-19T01:05:51.655Z,16.00
2019-05-19T01:08:21.579Z,15.90
2019-05-19T01:10:51.039Z,15.90
2019-05-19T01:13:20.526Z,15.90
2019-05-19T01:15:49.979Z,15.90
2019-05-19T01:18:19.418Z,15.90
2019-05-19T01:20:49.027Z,15.90
2019-05-19T01:23:18.545Z,15.90
2019-05-19T01:25:48.002Z,15.90
2019-05-19T01:28:17.480Z,15.80
2019-05-19T01:30:47.663Z,15.80
2019-05-19T01:33:17.124Z,15.80
2019-05-19T01:35:46.585Z,15.80
2019-05-19T01:38:16.051Z,15.80
2019-05-19T01:40:45.534Z,15.80
2019-05-19T01:43:14.975Z,15.80
2019-05-19T01:45:44.426Z,15.70
2019-05-19T01:48:13.899Z,15.70
2019-05-19T01:50:43.361Z,15.70
2019-05-19T01:53:12.820Z,15.70
2019-05-19T01:55:42.296Z,15.70
2019-05-19T01:58:11.749Z,15.70
2019-05-19T02:00:41.190Z,15.70
2019-05-19T02:03:10.697Z,15.60
2019-05-19T02:05:40.141Z,15.60
2019-05-19T02:08:09.661Z,15.70
2019-05-19T02:10:39.076Z,15.70
2019-05-19T02:13:08.586Z,15.70
2019-05-19T02:15:38.087Z,15.60
2019-05-19T02:18:13.872Z,15.60
2019-05-19T02:20:56.062Z,15.60
2019-05-19T02:23:39.083Z,15.60
2019-05-19T02:26:08.550Z,15.50
2019-05-19T02:28:38.065Z,15.40
2019-05-19T02:31:07.581Z,15.30
2019-05-19T02:33:56.383Z,15.30
2019-05-19T02:36:25.837Z,15.30
2019-05-19T02:38:55.300Z,15.20
2019-05-19T02:41:26.758Z,15.20
2019-05-19T02:44:17.100Z,15.20
2019-05-19T02:46:47.296Z,15.20
2019-05-19T02:49:28.895Z,15.10
2019-05-19T02:52:01.490Z,15.10
2019-05-19T02:54:43.230Z,15.00
2019-05-19T02:57:13.235Z,15.00
2019-05-19T02:59:43.647Z,15.00
2019-05-19T03:02:14.770Z,15.00
2019-05-19T03:04:50.847Z,15.00
2019-05-19T03:07:23.559Z,14.90
2019-05-19T03:09:53.012Z,14.90
2019-05-19T03:12:22.481Z,14.90
2019-05-19T03:14:52.010Z,14.90
2019-05-19T03:17:21.469Z,14.90
2019-05-19T03:19:50.920Z,14.90
2019-05-19T03:22:20.392Z,14.90
2019-05-19T03:24:49.851Z,14.90
2019-05-19T03:27:19.323Z,15.00
2019-05-19T03:29:50.422Z,15.00
2019-05-19T03:32:21.546Z,15.00
2019-05-19T03:34:51.024Z,15.00
2019-05-19T03:37:28.615Z,15.00
2019-05-19T03:39:58.068Z,14.90
2019-05-19T03:42:27.513Z,14.90
2019-05-19T03:44:56.985Z,14.80
2019-05-19T03:47:26.426Z,14.70
2019-05-19T03:49:55.895Z,14.70
2019-05-19T03:52:25.356Z,14.70
2019-05-19T03:54:54.821Z,14.70
2019-05-19T03:57:24.276Z,14.70
2019-05-19T04:00:06.793Z,14.80
2019-05-19T04:02:36.562Z,14.80
2019-05-19T04:05:09.544Z,14.80
2019-05-19T04:07:38.993Z,14.80
2019-05-19T04:10:09.197Z,14.80
2019-05-19T04:12:38.668Z,14.80
2019-05-19T04:15:10.291Z,14.80
2019-05-19T04:17:39.768Z,14.80
2019-05-19T04:20:09.661Z,14.80
2019-05-19T04:22:39.153Z,14.80
2019-05-19T04:25:12.675Z,14.90
2019-05-19T04:27:42.140Z,14.90
2019-05-19T04:30:12.153Z,14.90
2019-05-19T04:33:02.478Z,14.90
2019-05-19T04:35:31.947Z,14.90
2019-05-19T04:38:01.435Z,14.90
2019-05-19T04:40:30.892Z,14.90
2019-05-19T04:43:00.351Z,14.90
2019-05-19T04:45:31.214Z,14.90
2019-05-19T04:48:00.674Z,14.90
2019-05-19T04:50:49.469Z,14.90
2019-05-19T04:53:18.934Z,14.90
2019-05-19T04:55:48.399Z,14.90
2019-05-19T04:58:17.850Z,15.00
2019-05-19T05:00:47.315Z,15.00
2019-05-19T05:03:16.964Z,15.00
2019-05-19T05:05:46.407Z,15.00
2019-05-19T05:08:28.625Z,15.00
2019-05-19T05:10:46.941Z,15.10
2019-05-19T05:13:16.434Z,15.10
2019-05-19T05:15:45.895Z,15.10
2019-05-19T05:18:17.423Z,15.10
2019-05-19T05:20:46.861Z,15.10
2019-05-19T05:23:16.323Z,15.10
2019-05-19T05:25:48.711Z,15.10
2019-05-19T05:28:18.173Z,15.10
2019-05-19T05:30:47.623Z,15.10
2019-05-19T05:33:17.107Z,15.10
2019-05-19T05:35:46.551Z,15.10
2019-05-19T05:38:16.007Z,15.20
2019-05-19T05:40:45.901Z,15.20
2019-05-19T05:43:20.294Z,15.10
2019-05-19T05:45:49.755Z,15.20
2019-05-19T05:48:20.762Z,15.20
2019-05-19T05:50:50.893Z,15.20
2019-05-19T05:53:22.682Z,15.30
2019-05-19T05:55:52.198Z,15.30
2019-05-19T05:58:21.678Z,15.20
2019-05-19T06:00:58.164Z,15.20
2019-05-19T06:03:27.606Z,15.20
2019-05-19T06:05:58.146Z,15.20
2019-05-19T06:08:27.598Z,15.10
2019-05-19T06:11:08.867Z,15.20
2019-05-19T06:13:38.300Z,15.20
2019-05-19T06:16:07.691Z,15.10
2019-05-19T06:18:37.161Z,15.10
2019-05-19T06:21:06.610Z,15.10
2019-05-19T06:23:36.092Z,15.20
2019-05-19T06:26:05.526Z,15.30
2019-05-19T06:28:34.996Z,15.30
2019-05-19T06:31:05.983Z,15.40
2019-05-19T06:33:35.483Z,15.40
2019-05-19T06:36:05.006Z,15.50
2019-05-19T06:38:34.483Z,15.60
2019-05-19T06:41:04.648Z,15.70
2019-05-19T06:43:34.095Z,15.80
2019-05-19T06:46:03.575Z,15.90
2019-05-19T06:48:33.099Z,15.90
2019-05-19T06:51:03.459Z,16.00
2019-05-19T06:53:32.895Z,15.90
2019-05-19T06:56:02.376Z,16.00
2019-05-19T06:58:32.008Z,16.00
2019-05-19T07:01:01.468Z,16.10
2019-05-19T07:03:30.934Z,16.20
2019-05-19T07:06:00.435Z,16.20
2019-05-19T07:08:30.049Z,16.30
2019-05-19T07:10:59.597Z,16.30
2019-05-19T07:13:29.063Z,16.30
2019-05-19T07:15:58.527Z,16.40
2019-05-19T07:18:27.977Z,16.30
2019-05-19T07:20:57.444Z,16.50
2019-05-19T07:23:28.534Z,16.60
2019-05-19T07:25:57.996Z,16.60
2019-05-19T07:28:27.498Z,16.70
2019-05-19T07:30:56.961Z,16.80
2019-05-19T07:33:26.431Z,16.90
2019-05-19T07:36:08.304Z,16.90
2019-05-19T07:38:39.417Z,16.90
2019-05-19T07:41:09.246Z,16.90
2019-05-19T07:43:38.702Z,16.90
2019-05-19T07:46:08.211Z,17.00
2019-05-19T07:48:37.675Z,17.00
2019-05-19T07:51:07.127Z,17.00
2019-05-19T07:53:43.125Z,17.00
2019-05-19T07:56:24.579Z,17.20
2019-05-19T07:58:54.064Z,17.20
2019-05-19T08:01:23.823Z,17.40
2019-05-19T08:03:54.811Z,17.50
2019-05-19T08:06:24.258Z,17.60
2019-05-19T08:08:53.711Z,17.60
2019-05-19T08:11:23.179Z,17.60
2019-05-19T08:13:52.685Z,17.70
2019-05-19T08:16:22.139Z,17.70
2019-05-19T08:18:51.610Z,17.70
2019-05-19T08:21:21.061Z,17.80
2019-05-19T08:23:59.752Z,17.80
2019-05-19T08:26:21.608Z,17.70
2019-05-19T08:29:10.486Z,17.70
2019-05-19T08:31:39.962Z,17.60
2019-05-19T08:34:09.456Z,17.60
2019-05-19T08:36:51.459Z,17.80
2019-05-19T08:39:20.949Z,17.90
2019-05-19T08:41:50.475Z,18.10
2019-05-19T08:44:19.935Z,18.20
2019-05-19T08:46:49.416Z,18.30
2019-05-19T08:49:21.635Z,18.50
2019-05-19T08:51:51.060Z,18.50
2019-05-19T08:54:21.622Z,18.60
2019-05-19T08:56:51.646Z,18.60
2019-05-19T08:59:21.990Z,18.40
2019-05-19T09:01:51.539Z,18.20
2019-05-19T09:04:21.012Z,18.00
2019-05-19T09:06:50.450Z,18.10
2019-05-19T09:09:19.914Z,18.10
2019-05-19T09:11:49.390Z,18.10
2019-05-19T09:14:18.829Z,18.10
2019-05-19T09:16:48.295Z,18.10
2019-05-19T09:19:17.912Z,18.30
2019-05-19T09:21:47.372Z,18.30
2019-05-19T09:24:29.528Z,18.20
2019-05-19T09:26:49.148Z,18.20
2019-05-19T09:29:18.630Z,18.30
2019-05-19T09:31:51.037Z,18.40
2019-05-19T09:34:20.597Z,18.50
2019-05-19T09:36:50.035Z,18.60
2019-05-19T09:39:19.501Z,18.50
2019-05-19T09:41:50.665Z,18.60
2019-05-19T09:44:20.180Z,18.80
2019-05-19T09:46:49.646Z,18.90
2019-05-19T09:49:34.286Z,19.00
2019-05-19T09:52:05.467Z,18.90
2019-05-19T09:54:44.644Z,18.90
2019-05-19T09:57:13.993Z,18.80
2019-05-19T09:59:47.313Z,18.90
2019-05-19T10:02:16.859Z,19.00
2019-05-19T10:04:46.293Z,19.10
2019-05-19T10:07:27.899Z,19.10
2019-05-19T10:10:02.507Z,19.20
2019-05-19T10:12:35.622Z,19.50
2019-05-19T10:15:06.982Z,19.50
2019-05-19T10:17:36.448Z,19.40
2019-05-19T10:20:07.665Z,19.40
2019-05-19T10:22:40.858Z,19.40
2019-05-19T10:25:21.874Z,19.40
2019-05-19T10:27:54.365Z,19.60
2019-05-19T10:30:29.837Z,19.70
2019-05-19T10:32:59.342Z,19.80
2019-05-19T10:35:28.782Z,20.10
2019-05-19T10:37:58.267Z,20.10
2019-05-19T10:40:27.719Z,20.20
2019-05-19T10:42:57.200Z,20.40
2019-05-19T10:45:26.639Z,20.50
2019-05-19T10:47:56.130Z,20.40
2019-05-19T10:50:25.623Z,20.20
2019-05-19T10:52:55.095Z,19.90
2019-05-19T10:55:36.228Z,19.60
2019-05-19T10:57:55.670Z,19.60
2019-05-19T11:00:25.201Z,19.80
2019-05-19T11:02:54.665Z,20.00
2019-05-19T11:05:24.151Z,20.10
2019-05-19T11:07:53.621Z,20.30
2019-05-19T11:10:23.086Z,20.40
2019-05-19T11:12:52.555Z,20.50
2019-05-19T11:15:22.943Z,20.60
2019-05-19T11:17:52.420Z,20.60
2019-05-19T11:20:22.184Z,20.70
2019-05-19T11:22:55.936Z,20.90
2019-05-19T11:25:33.393Z,21.00
2019-05-19T11:27:56.843Z,20.80
2019-05-19T11:30:28.008Z,20.80
2019-05-19T11:32:59.102Z,20.90
2019-05-19T11:35:28.641Z,21.00
2019-05-19T11:37:59.731Z,21.20
2019-05-19T11:40:29.205Z,21.30
2019-05-19T11:42:58.649Z,21.30
2019-05-19T11:45:29.282Z,21.20
2019-05-19T11:47:58.742Z,21.10
2019-05-19T11:50:29.822Z,21.40
2019-05-19T11:52:59.382Z,21.50
2019-05-19T11:55:28.880Z,21.40
2019-05-19T11:57:59.203Z,21.60
2019-05-19T12:00:28.677Z,21.70
2019-05-19T12:02:58.164Z,21.60
2019-05-19T12:05:27.831Z,21.40
2019-05-19T12:07:57.269Z,21.40
2019-05-19T12:10:26.751Z,21.40
2019-05-19T12:12:56.190Z,21.40
2019-05-19T12:15:25.807Z,21.40
2019-05-19T12:17:55.402Z,21.50
2019-05-19T12:20:24.926Z,21.60
2019-05-19T12:22:54.390Z,21.70
2019-05-19T12:25:23.956Z,21.70
2019-05-19T12:27:53.416Z,21.80
2019-05-19T12:30:24.501Z,21.70
2019-05-19T12:32:53.967Z,21.80
2019-05-19T12:35:23.493Z,22.10
2019-05-19T12:37:52.952Z,22.10
2019-05-19T12:40:22.827Z,22.10
2019-05-19T12:42:52.909Z,22.20
2019-05-19T12:45:22.716Z,22.20
2019-05-19T12:47:52.730Z,22.20
2019-05-19T12:50:22.938Z,22.30
2019-05-19T12:52:55.140Z,22.20
2019-05-19T12:55:24.571Z,22.20
2019-05-19T12:57:54.202Z,22.30
2019-05-19T13:00:23.699Z,22.50
2019-05-19T13:02:53.159Z,22.60
2019-05-19T13:05:22.888Z,22.50
2019-05-19T13:08:04.218Z,22.40
2019-05-19T13:10:33.751Z,22.10
2019-05-19T13:13:03.239Z,22.00
2019-05-19T13:15:32.774Z,22.00
2019-05-19T13:18:02.247Z,22.10
2019-05-19T13:20:31.731Z,22.10
2019-05-19T13:23:01.263Z,22.00
2019-05-19T13:25:30.797Z,22.10
2019-05-19T13:28:00.655Z,21.90
2019-05-19T13:30:30.112Z,22.00
2019-05-19T13:35:48.990Z,22.40
2019-05-19T13:38:18.451Z,22.70
2019-05-19T13:40:49.387Z,22.80
2019-05-19T13:43:18.858Z,23.00
2019-05-19T13:45:49.489Z,23.00
2019-05-19T13:48:18.999Z,23.00
2019-05-19T13:50:48.450Z,22.90
2019-05-19T13:53:17.918Z,23.20
2019-05-19T13:55:47.390Z,23.70
2019-05-19T13:58:16.861Z,24.00
2019-05-19T14:00:46.331Z,24.50
2019-05-19T14:03:16.063Z,24.70
2019-05-19T14:05:45.626Z,24.40
2019-05-19T14:08:16.540Z,24.20
2019-05-19T14:10:46.010Z,24.30
2019-05-19T14:13:28.226Z,24.70
2019-05-19T14:15:57.703Z,24.70
2019-05-19T14:18:27.168Z,24.70
2019-05-19T14:20:56.624Z,24.90
2019-05-19T14:23:26.135Z,25.40
2019-05-19T14:25:55.604Z,25.50
2019-05-19T14:28:25.065Z,25.30
2019-05-19T14:30:54.546Z,24.90
2019-05-19T14:33:25.058Z,24.30
2019-05-19T14:35:54.806Z,23.90
2019-05-19T14:38:24.261Z,23.50
2019-05-19T14:40:55.391Z,23.00
2019-05-19T14:43:26.547Z,22.60
2019-05-19T14:45:55.995Z,22.50
2019-05-19T14:48:25.450Z,22.40
2019-05-19T14:50:54.909Z,21.80
2019-05-19T14:53:24.366Z,21.20
2019-05-19T14:55:53.835Z,21.00
2019-05-19T14:58:23.286Z,20.80
2019-05-19T15:00:52.764Z,20.50
2019-05-19T15:03:22.252Z,20.90
2019-05-19T15:05:51.778Z,21.30
2019-05-19T15:08:21.252Z,21.10
2019-05-19T15:10:51.666Z,20.90
2019-05-19T15:13:21.161Z,20.70
2019-05-19T15:15:50.618Z,20.50
2019-05-19T15:18:20.740Z,20.20
2019-05-19T15:20:51.755Z,20.30
2019-05-19T15:23:25.979Z,20.30
2019-05-19T15:25:58.201Z,20.20
2019-05-19T15:28:27.602Z,20.10
2019-05-19T15:30:57.674Z,20.10
2019-05-19T15:33:27.193Z,19.70
2019-05-19T15:35:56.702Z,19.50
2019-05-19T15:38:26.280Z,19.00
2019-05-19T15:40:55.708Z,18.60
2019-05-19T15:43:25.178Z,18.40
2019-05-19T15:45:54.627Z,18.30
2019-05-19T15:48:24.091Z,18.10
2019-05-19T15:50:53.563Z,18.30
2019-05-19T15:53:23.013Z,18.40
2019-05-19T15:55:52.482Z,18.40
2019-05-19T15:58:22.039Z,18.40
2019-05-19T16:00:51.947Z,18.30
2019-05-19T16:03:21.468Z,18.10
2019-05-19T16:05:50.947Z,17.90
2019-05-19T16:08:20.379Z,17.80
2019-05-19T16:10:49.877Z,17.70
2019-05-19T16:13:21.977Z,17.70
2019-05-19T16:15:50.578Z,17.50
2019-05-19T16:18:20.077Z,17.40
2019-05-19T16:20:50.496Z,17.30
2019-05-19T16:23:19.966Z,17.20
2019-05-19T16:25:50.688Z,17.10
2019-05-19T16:28:30.349Z,16.90
2019-05-19T16:30:51.279Z,16.90
2019-05-19T16:33:20.883Z,16.70
2019-05-19T16:35:50.390Z,16.50
2019-05-19T16:38:19.831Z,16.50
2019-05-19T16:40:51.071Z,16.50
2019-05-19T16:43:22.048Z,16.40
2019-05-19T16:45:51.515Z,16.30
2019-05-19T16:48:23.410Z,16.40
2019-05-19T16:50:52.930Z,16.40
2019-05-19T16:53:22.424Z,16.50
2019-05-19T16:55:51.902Z,16.40
2019-05-19T16:58:21.850Z,16.40
2019-05-19T17:00:52.031Z,16.30
2019-05-19T17:03:21.497Z,16.20
2019-05-19T17:05:52.090Z,16.20
2019-05-19T17:08:21.567Z,16.20
2019-05-19T17:10:52.546Z,16.20
2019-05-19T17:13:24.298Z,16.20
2019-05-19T17:15:54.819Z,16.20
2019-05-19T17:18:24.358Z,16.20
2019-05-19T17:20:55.262Z,16.20
2019-05-19T17:23:26.206Z,16.20
2019-05-19T17:25:55.683Z,16.10
2019-05-19T17:28:25.109Z,16.10
2019-05-19T17:30:54.515Z,16.10
2019-05-19T17:33:23.988Z,16.10
2019-05-19T17:35:54.423Z,16.10
2019-05-19T17:38:23.878Z,16.00
2019-05-19T17:40:53.338Z,16.10
2019-05-19T17:43:22.831Z,16.10
2019-05-19T17:45:52.270Z,16.00
2019-05-19T17:48:26.494Z,16.00
2019-05-19T17:50:52.910Z,16.00
2019-05-19T17:53:22.375Z,16.00
2019-05-19T17:55:53.098Z,16.00
2019-05-19T17:58:23.312Z,16.00
2019-05-19T18:00:53.873Z,16.10
2019-05-19T18:03:25.656Z,16.10
2019-05-19T18:06:00.479Z,16.00
2019-05-19T18:08:29.950Z,15.90
2019-05-19T18:10:59.429Z,15.90
2019-05-19T18:13:32.693Z,15.90
2019-05-19T18:16:02.304Z,16.00
2019-05-19T18:18:43.829Z,16.00
2019-05-19T18:21:13.271Z,16.00
2019-05-19T18:23:42.735Z,15.90
2019-05-19T18:26:12.303Z,15.80
2019-05-19T18:28:42.844Z,15.70
2019-05-19T18:31:12.387Z,15.60
2019-05-19T18:33:41.886Z,15.60
2019-05-19T18:36:14.668Z,15.50
2019-05-19T18:38:45.616Z,15.50
2019-05-19T18:41:21.756Z,15.50
2019-05-19T18:43:51.281Z,15.50
2019-05-19T18:46:20.742Z,15.50
2019-05-19T18:48:51.953Z,15.40
2019-05-19T18:51:21.376Z,15.40
2019-05-19T18:53:50.864Z,15.40
2019-05-19T18:56:20.396Z,15.30
2019-05-19T18:58:49.886Z,15.20
2019-05-19T19:01:19.467Z,15.10
2019-05-19T19:03:49.069Z,15.10
2019-05-19T19:06:18.546Z,15.00
2019-05-19T19:08:48.003Z,14.90
2019-05-19T19:11:17.542Z,14.90
2019-05-19T19:13:47.298Z,14.90
2019-05-19T19:16:16.760Z,14.90
2019-05-19T19:18:46.214Z,14.90
2019-05-19T19:21:15.705Z,14.90
2019-05-19T19:23:45.391Z,14.90
2019-05-19T19:26:14.761Z,14.80
2019-05-19T19:28:44.246Z,14.80
2019-05-19T19:31:13.703Z,14.80
2019-05-19T19:33:43.154Z,14.80
2019-05-19T19:36:32.060Z,14.70
2019-05-19T19:39:01.494Z,14.60
2019-05-19T19:41:32.931Z,14.70
2019-05-19T19:44:02.463Z,14.70
2019-05-19T19:46:32.282Z,14.60
2019-05-19T19:49:06.492Z,14.60
2019-05-19T19:51:35.950Z,14.50
2019-05-19T19:54:05.562Z,14.50
2019-05-19T19:56:35.050Z,14.40
2019-05-19T19:59:04.566Z,14.40
2019-05-19T20:01:34.042Z,14.30
2019-05-19T20:04:03.722Z,14.30
2019-05-19T20:06:33.220Z,14.40
2019-05-19T20:09:02.705Z,14.40
2019-05-19T20:11:33.346Z,14.40
2019-05-19T20:14:02.984Z,14.30
2019-05-19T20:16:32.447Z,14.20
2019-05-19T20:19:01.976Z,14.30
2019-05-19T20:21:32.380Z,14.00
2019-05-19T20:24:03.305Z,13.90
2019-05-19T20:26:33.721Z,13.80
2019-05-19T20:29:03.187Z,13.80
2019-05-19T20:31:32.669Z,13.80
2019-05-19T20:34:02.138Z,13.80
2019-05-19T20:36:31.619Z,13.80
2019-05-19T20:39:01.158Z,13.80
2019-05-19T20:41:33.788Z,13.80
2019-05-19T20:44:03.746Z,13.80
2019-05-19T20:46:33.213Z,13.80
2019-05-19T20:49:02.735Z,13.80
2019-05-19T20:51:33.485Z,13.90
2019-05-19T20:54:06.159Z,13.90
2019-05-19T20:56:35.600Z,13.80
2019-05-19T20:59:05.089Z,13.80
2019-05-19T21:01:34.634Z,13.70
2019-05-19T21:04:04.093Z,13.80
2019-05-19T21:06:39.478Z,13.70
2019-05-19T21:09:09.009Z,13.80
2019-05-19T21:11:38.394Z,13.80
2019-05-19T21:14:07.848Z,13.70
2019-05-19T21:16:37.456Z,13.70
2019-05-19T21:19:08.520Z,13.70
2019-05-19T21:21:38.003Z,13.70
2019-05-19T21:24:07.491Z,13.70
2019-05-19T21:26:36.996Z,13.70
2019-05-19T21:29:09.052Z,13.60
2019-05-19T21:31:38.258Z,13.60
2019-05-19T21:34:20.280Z,13.60
2019-05-19T21:36:55.349Z,13.60
2019-05-19T21:39:28.435Z,13.60
2019-05-19T21:41:59.531Z,13.60
2019-05-19T21:44:29.007Z,13.60
2019-05-19T21:46:58.845Z,13.60
2019-05-19T21:49:28.263Z,13.60
2019-05-19T21:51:57.714Z,13.60
2019-05-19T21:54:27.530Z,13.60
2019-05-19T21:56:57.031Z,13.60
2019-05-19T21:59:26.482Z,13.60
2019-05-19T22:01:55.939Z,13.60
2019-05-19T22:04:25.480Z,13.60
2019-05-19T22:07:18.539Z,13.60
2019-05-19T22:09:49.067Z,13.60
2019-05-19T22:12:18.496Z,13.70
2019-05-19T22:14:47.965Z,13.80
2019-05-19T22:17:17.410Z,13.80
2019-05-19T22:19:46.870Z,13.80
2019-05-19T22:22:16.343Z,13.80
2019-05-19T22:24:45.799Z,13.70
2019-05-19T22:27:15.301Z,13.70
2019-05-19T22:29:53.806Z,13.80
2019-05-19T22:32:24.863Z,13.80
2019-05-19T22:34:54.858Z,13.80
2019-05-19T22:37:24.382Z,13.80
2019-05-19T22:39:53.886Z,13.80
2019-05-19T22:42:23.298Z,13.80
2019-05-19T22:44:52.745Z,13.80
2019-05-19T22:47:22.367Z,13.90
2019-05-19T22:49:51.830Z,13.90
2019-05-19T22:52:21.314Z,13.90
2019-05-19T22:57:37.667Z,13.90
2019-05-19T23:00:12.756Z,13.90
2019-05-19T23:02:44.117Z,13.90
2019-05-19T23:05:14.002Z,13.90
2019-05-19T23:07:44.047Z,13.80
2019-05-19T23:10:13.833Z,13.90
2019-05-19T23:12:50.618Z,13.90
2019-05-19T23:15:20.484Z,13.90
2019-05-19T23:17:49.935Z,13.90
2019-05-19T23:20:20.516Z,13.90
2019-05-19T23:22:51.681Z,13.80
2019-05-19T23:25:24.052Z,13.90
2019-05-19T23:27:53.462Z,13.90
2019-05-19T23:30:23.002Z,13.80
2019-05-19T23:32:52.458Z,13.90
2019-05-19T23:35:21.951Z,13.80
2019-05-19T23:37:53.279Z,13.80
2019-05-19T23:40:22.770Z,13.80
2019-05-19T23:42:52.203Z,13.70
2019-05-19T23:45:21.738Z,13.70
2019-05-19T23:47:51.664Z,13.70
2019-05-19T23:50:21.115Z,13.70
2019-05-19T23:53:09.920Z,13.70
2019-05-19T23:55:39.398Z,13.70
2019-05-19T23:58:08.883Z,13.70
